createdAt,value
2019-04-22T00:00:32.816Z,9.50
2019-04-22T00:03:03.055Z,8.30
2019-04-22T00:05:51.233Z,8.37
2019-04-22T00:08:25.035Z,8.93
2019-04-22T00:10:54.025Z,9.40
2019-04-22T00:13:26.202Z,9.10
2019-04-22T00:15:47.842Z,9.17
2019-04-22T00:18:30.485Z,8.87
2019-04-22T00:20:58.026Z,8.87
2019-04-22T00:23:25.663Z,9.23
2019-04-22T00:26:01.665Z,8.90
2019-04-22T00:28:41.176Z,10.13
2019-04-22T00:31:09.967Z,9.13
2019-04-22T00:33:31.947Z,9.40
2019-04-22T00:36:08.728Z,9.70
2019-04-22T00:38:38.710Z,9.63
2019-04-22T00:41:08.217Z,9.87
2019-04-22T00:43:45.803Z,11.12
2019-04-22T00:46:15.638Z,10.47
2019-04-22T00:48:44.546Z,10.53
2019-04-22T00:54:02.052Z,11.40
2019-04-22T00:56:28.227Z,10.23
2019-04-22T00:58:59.201Z,10.80
2019-04-22T01:01:32.193Z,11.57
2019-04-22T01:04:04.335Z,11.70
2019-04-22T01:06:44.538Z,11.30
2019-04-22T01:11:33.650Z,11.77
2019-04-22T01:14:13.081Z,11.47
2019-04-22T01:16:42.693Z,11.77
2019-04-22T01:19:16.132Z,12.43
2019-04-22T01:24:17.535Z,13.57
2019-04-22T01:26:43.580Z,13.13
2019-04-22T01:29:10.996Z,12.80
2019-04-22T01:31:34.067Z,13.40
2019-04-22T01:34:10.315Z,13.43
2019-04-22T01:36:47.426Z,13.33
2019-04-22T01:39:25.076Z,12.67
2019-04-22T01:42:03.894Z,13.70
2019-04-22T01:44:31.368Z,13.77
2019-04-22T01:47:00.244Z,12.73
2019-04-22T01:49:27.313Z,13.87
2019-04-22T01:51:58.673Z,13.63
2019-04-22T01:54:29.745Z,13.30
2019-04-22T01:59:20.114Z,13.93
2019-04-22T02:01:55.162Z,13.57
2019-04-22T02:04:35.074Z,14.33
2019-04-22T02:06:59.180Z,14.90
2019-04-22T02:09:31.231Z,14.23
2019-04-22T02:12:11.177Z,14.30
2019-04-22T02:14:39.915Z,15.13
2019-04-22T02:19:48.146Z,14.27
2019-04-22T02:22:07.054Z,14.90
2019-04-22T02:24:47.069Z,15.20
2019-04-22T02:27:17.707Z,14.83
2019-04-22T02:32:28.059Z,16.37
2019-04-22T02:35:01.258Z,15.67
2019-04-22T02:37:18.758Z,15.57
2019-04-22T02:39:57.297Z,15.50
2019-04-22T02:42:16.436Z,15.63
2019-04-22T02:45:20.878Z,15.70
2019-04-22T02:47:42.275Z,15.20
2019-04-22T02:50:09.187Z,16.43
2019-04-22T02:53:01.313Z,16.03
2019-04-22T02:55:32.991Z,15.33
2019-04-22T02:57:47.087Z,16.70
2019-04-22T03:00:21.560Z,16.73
2019-04-22T03:03:03.722Z,16.87
2019-04-22T03:05:21.980Z,17.07
2019-04-22T03:07:55.960Z,17.37
2019-04-22T03:10:20.557Z,16.73
2019-04-22T03:12:41.812Z,18.37
2019-04-22T03:15:12.127Z,17.80
2019-04-22T03:17:47.431Z,18.30
2019-04-22T03:22:47.643Z,17.90
2019-04-22T03:27:42.737Z,18.53
2019-04-22T03:33:12.489Z,18.13
2019-04-22T03:47:53.578Z,19.30
2019-04-22T03:50:22.647Z,19.30
2019-04-22T03:52:47.161Z,18.00
2019-04-22T03:55:15.017Z,20.07
2019-04-22T04:00:30.830Z,20.27
2019-04-22T04:10:30.169Z,20.73
2019-04-22T04:15:21.157Z,19.60
2019-04-22T04:28:11.300Z,21.30
2019-04-22T04:30:26.482Z,20.90
2019-04-22T04:32:52.517Z,20.93
2019-04-22T04:40:29.214Z,22.13
2019-04-22T04:42:54.403Z,22.30
2019-04-22T04:53:02.614Z,23.03
2019-04-22T05:05:25.193Z,23.03
2019-04-22T05:15:19.271Z,24.23
2019-04-22T05:20:29.366Z,24.63
2019-04-22T05:30:23.422Z,24.17
2019-04-22T05:32:42.976Z,25.47
2019-04-22T05:35:20.387Z,25.87
2019-04-22T05:37:45.844Z,24.63
2019-04-22T05:40:20.149Z,27.03
2019-04-22T05:42:46.203Z,25.73
2019-04-22T05:45:17.851Z,26.40
2019-04-22T05:47:46.309Z,25.83
2019-04-22T05:50:13.010Z,27.57
2019-04-22T05:52:54.381Z,26.90
2019-04-22T05:55:22.437Z,26.13
2019-04-22T05:57:51.197Z,26.23
2019-04-22T06:00:36.928Z,27.00
2019-04-22T06:05:24.948Z,26.63
2019-04-22T06:07:53.370Z,27.53
2019-04-22T06:10:41.131Z,27.60
2019-04-22T06:12:48.028Z,26.53
2019-04-22T06:15:24.215Z,25.87
2019-04-22T06:18:05.611Z,25.50
2019-04-22T06:20:25.542Z,27.40
2019-04-22T06:22:58.471Z,26.43
2019-04-22T06:25:27.779Z,27.00
2019-04-22T06:27:57.509Z,29.72
2019-04-22T06:30:29.103Z,28.50
2019-04-22T06:32:53.801Z,28.17
2019-04-22T06:35:33.298Z,27.50
2019-04-22T06:38:18.901Z,29.27
2019-04-22T06:40:27.510Z,27.80
2019-04-22T06:42:58.043Z,26.40
2019-04-22T06:45:24.578Z,28.00
2019-04-22T06:48:02.335Z,27.27
2019-04-22T06:50:33.922Z,27.80
2019-04-22T06:52:57.217Z,27.33
2019-04-22T06:55:33.007Z,28.07
2019-04-22T06:57:59.829Z,28.50
2019-04-22T07:03:24.109Z,28.50
2019-04-22T07:05:28.517Z,29.03
2019-04-22T07:08:04.145Z,28.47
2019-04-22T07:10:40.463Z,29.50
2019-04-22T07:12:53.888Z,27.73
2019-04-22T07:15:46.364Z,26.73
2019-04-22T07:18:04.110Z,29.13
2019-04-22T07:20:33.347Z,27.83
2019-04-22T07:23:06.700Z,29.20
2019-04-22T07:28:05.177Z,28.17
2019-04-22T07:30:35.048Z,28.33
2019-04-22T07:35:36.539Z,27.67
2019-04-22T07:38:07.858Z,26.77
2019-04-22T07:40:40.362Z,27.87
2019-04-22T07:43:04.302Z,26.03
2019-04-22T07:45:38.262Z,27.57
2019-04-22T07:48:18.854Z,26.13
2019-04-22T07:50:50.658Z,25.70
2019-04-22T07:53:08.487Z,25.80
2019-04-22T07:55:43.398Z,25.40
2019-04-22T07:58:15.540Z,25.37
2019-04-22T08:03:11.751Z,24.90
2019-04-22T08:05:45.887Z,24.27
2019-04-22T08:08:13.190Z,25.03
2019-04-22T08:10:43.893Z,25.47
2019-04-22T08:13:04.904Z,24.97
2019-04-22T08:15:42.031Z,25.00
2019-04-22T08:23:09.155Z,24.50
2019-04-22T08:25:38.843Z,25.20
2019-04-22T08:28:10.655Z,24.93
2019-04-22T08:30:41.436Z,24.53
2019-04-22T08:33:16.002Z,24.23
2019-04-22T08:38:14.929Z,23.97
2019-04-22T08:40:47.207Z,23.33
2019-04-22T08:45:46.190Z,23.60
2019-04-22T08:48:11.093Z,22.47
2019-04-22T08:50:44.668Z,24.30
2019-04-22T08:53:19.666Z,22.37
2019-04-22T08:55:51.521Z,22.20
2019-04-22T08:58:21.410Z,22.53
2019-04-22T09:00:50.960Z,22.03
2019-04-22T09:03:11.059Z,21.10
2019-04-22T09:08:21.250Z,21.30
2019-04-22T09:10:46.837Z,21.83
2019-04-22T09:13:31.844Z,20.17
2019-04-22T09:15:45.103Z,20.20
2019-04-22T09:18:14.224Z,18.80
2019-04-22T09:20:53.449Z,20.90
2019-04-22T09:23:21.470Z,19.80
2019-04-22T09:25:46.773Z,18.93
2019-04-22T09:28:17.518Z,18.77
2019-04-22T09:30:47.030Z,19.40
2019-04-22T09:38:25.764Z,22.17
2019-04-22T09:40:48.461Z,21.33
2019-04-22T09:43:16.981Z,19.53
2019-04-22T09:45:43.374Z,19.73
2019-04-22T09:48:16.319Z,18.80
2019-04-22T09:53:14.811Z,18.97
2019-04-22T09:55:43.189Z,18.43
2019-04-22T09:58:16.578Z,17.97
2019-04-22T10:01:03.068Z,19.53
2019-04-22T10:03:22.176Z,17.07
2019-04-22T10:05:58.260Z,15.97
2019-04-22T10:08:34.052Z,16.73
2019-04-22T10:11:00.849Z,17.73
2019-04-22T10:13:32.019Z,17.43
2019-04-22T10:15:58.930Z,38.93
2019-04-22T10:18:25.825Z,17.40
2019-04-22T10:20:54.082Z,17.90
2019-04-22T10:23:25.395Z,17.77
2019-04-22T10:25:52.614Z,17.63
2019-04-22T10:28:23.405Z,17.13
2019-04-22T10:33:14.982Z,15.03
2019-04-22T10:35:30.662Z,14.37
2019-04-22T10:37:58.503Z,15.80
2019-04-22T10:40:36.311Z,14.87
2019-04-22T10:43:05.587Z,14.53
2019-04-22T10:45:34.468Z,14.77
2019-04-22T10:48:04.065Z,15.03
2019-04-22T10:50:43.167Z,14.43
2019-04-22T10:53:13.337Z,14.33
2019-04-22T10:55:44.907Z,15.07
2019-04-22T10:58:12.883Z,15.40
2019-04-22T11:00:42.071Z,14.60
2019-04-22T11:03:11.871Z,14.73
2019-04-22T11:05:42.130Z,16.20
2019-04-22T11:08:22.581Z,15.13
2019-04-22T11:10:56.372Z,14.67
2019-04-22T11:13:10.958Z,16.03
2019-04-22T11:15:40.477Z,14.28
2019-04-22T11:18:09.489Z,14.15
2019-04-22T11:20:39.771Z,12.77
2019-04-22T11:23:08.869Z,11.90
2019-04-22T11:25:37.567Z,11.53
2019-04-22T11:28:07.401Z,12.53
2019-04-22T11:30:36.733Z,10.88
2019-04-22T11:33:06.630Z,11.45
2019-04-22T11:35:35.274Z,10.40
2019-04-22T11:38:04.583Z,9.85
2019-04-22T11:40:38.441Z,9.20
2019-04-22T11:43:04.030Z,12.15
2019-04-22T11:45:33.395Z,10.85
2019-04-22T11:48:01.651Z,10.35
2019-04-22T11:50:31.659Z,11.22
2019-04-22T11:53:00.778Z,11.53
2019-04-22T11:55:30.721Z,13.43
2019-04-22T11:58:00.934Z,13.28
2019-04-22T12:00:32.781Z,13.45
2019-04-22T12:03:01.223Z,12.78
2019-04-22T12:05:29.984Z,12.80
2019-04-22T12:07:59.286Z,11.85
2019-04-22T12:10:36.677Z,9.95
2019-04-22T12:12:57.830Z,9.43
2019-04-22T12:15:26.772Z,10.43
2019-04-22T12:17:55.336Z,9.80
2019-04-22T12:20:25.379Z,8.98
2019-04-22T12:22:53.844Z,8.98
2019-04-22T12:25:32.304Z,8.88
2019-04-22T12:27:52.949Z,8.00
2019-04-22T12:30:21.457Z,8.90
2019-04-22T12:32:50.523Z,8.90
2019-04-22T12:35:19.851Z,7.62
2019-04-22T12:37:54.106Z,8.03
2019-04-22T12:40:30.111Z,7.72
2019-04-22T12:42:49.185Z,7.33
2019-04-22T12:45:18.356Z,6.72
2019-04-22T12:47:48.233Z,6.87
2019-04-22T12:50:24.107Z,6.33
2019-04-22T12:52:53.314Z,6.03
2019-04-22T12:55:25.839Z,5.50
2019-04-22T12:57:55.391Z,6.25
2019-04-22T13:00:26.636Z,4.90
2019-04-22T13:02:55.201Z,4.58
2019-04-22T13:05:25.086Z,5.17
2019-04-22T13:07:53.807Z,4.55
2019-04-22T13:10:22.210Z,5.70
2019-04-22T13:12:50.974Z,4.62
2019-04-22T13:15:20.075Z,4.90
2019-04-22T13:18:01.087Z,4.92
2019-04-22T13:20:20.312Z,8.70
2019-04-22T13:22:48.677Z,5.30
2019-04-22T13:25:17.649Z,5.00
2019-04-22T13:27:46.816Z,4.87
2019-04-22T13:30:16.492Z,4.37
2019-04-22T13:32:44.916Z,4.90
2019-04-22T13:35:13.238Z,4.70
2019-04-22T13:37:41.491Z,4.17
2019-04-22T13:40:10.906Z,4.30
2019-04-22T13:42:40.697Z,4.78
2019-04-22T13:45:09.783Z,3.90
2019-04-22T13:48:00.420Z,4.37
2019-04-22T13:53:26.178Z,4.85
2019-04-22T13:55:44.960Z,4.40
2019-04-22T13:57:58.379Z,4.53
2019-04-22T14:00:18.429Z,4.53
2019-04-22T14:02:52.701Z,4.97
2019-04-22T14:05:26.894Z,5.25
2019-04-22T14:07:57.578Z,4.83
2019-04-22T14:10:26.846Z,4.80
2019-04-22T14:12:56.776Z,4.95
2019-04-22T14:15:25.640Z,5.28
2019-04-22T14:17:54.692Z,5.80
2019-04-22T14:20:25.837Z,4.92
2019-04-22T14:22:54.664Z,5.58
2019-04-22T14:25:24.782Z,5.90
2019-04-22T14:28:01.246Z,6.15
2019-04-22T14:30:24.287Z,9.38
2019-04-22T14:32:54.076Z,7.83
2019-04-22T14:35:23.034Z,7.87
2019-04-22T14:37:52.245Z,7.47
2019-04-22T14:40:22.989Z,6.58
2019-04-22T14:43:05.936Z,6.97
2019-04-22T14:45:58.048Z,6.10
2019-04-22T14:48:22.669Z,7.70
2019-04-22T14:50:46.963Z,7.87
2019-04-22T14:53:19.559Z,7.65
2019-04-22T14:55:26.920Z,7.97
2019-04-22T14:57:55.046Z,7.40
2019-04-22T15:00:29.562Z,7.37
2019-04-22T15:02:59.612Z,7.78
2019-04-22T15:05:28.322Z,7.37
2019-04-22T15:07:57.203Z,7.20
2019-04-22T15:10:28.115Z,7.40
2019-04-22T15:12:58.769Z,6.58
2019-04-22T15:15:35.840Z,6.58
2019-04-22T15:18:21.991Z,7.25
2019-04-22T15:20:58.775Z,6.83
2019-04-22T15:23:28.349Z,7.12
2019-04-22T15:25:57.185Z,6.85
2019-04-22T15:28:25.478Z,6.33
2019-04-22T15:30:55.455Z,6.50
2019-04-22T15:33:25.633Z,6.33
2019-04-22T15:35:55.422Z,6.57
2019-04-22T15:38:24.396Z,6.35
2019-04-22T15:40:54.549Z,5.93
2019-04-22T15:43:27.006Z,5.53
2019-04-22T15:45:53.074Z,5.60
2019-04-22T15:48:21.347Z,6.20
2019-04-22T15:50:50.764Z,6.13
2019-04-22T15:53:20.073Z,5.80
2019-04-22T15:55:48.541Z,8.83
2019-04-22T15:58:17.599Z,10.83
2019-04-22T16:00:57.678Z,8.07
2019-04-22T16:03:16.440Z,23.25
2019-04-22T16:05:46.066Z,7.37
2019-04-22T16:08:15.077Z,5.17
2019-04-22T16:10:43.971Z,5.53
2019-04-22T16:13:20.164Z,5.80
2019-04-22T16:15:42.778Z,5.20
2019-04-22T16:18:13.411Z,4.90
2019-04-22T16:20:41.287Z,6.20
2019-04-22T16:23:13.044Z,16.83
2019-04-22T16:25:45.299Z,8.47
2019-04-22T16:28:15.275Z,6.53
2019-04-22T16:30:45.446Z,4.83
2019-04-22T16:33:15.177Z,5.07
2019-04-22T16:35:44.938Z,5.00
2019-04-22T16:38:14.922Z,12.53
2019-04-22T16:40:43.400Z,6.27
2019-04-22T16:43:13.514Z,5.77
2019-04-22T16:45:43.298Z,5.47
2019-04-22T16:48:11.764Z,5.20
2019-04-22T16:50:42.799Z,4.60
2019-04-22T16:53:10.268Z,5.00
2019-04-22T16:55:39.157Z,4.10
2019-04-22T16:58:07.601Z,4.10
2019-04-22T17:00:36.568Z,4.63
2019-04-22T17:03:18.892Z,4.73
2019-04-22T17:06:05.409Z,5.35
2019-04-22T17:08:34.848Z,6.90
2019-04-22T17:11:04.194Z,7.00
2019-04-22T17:13:34.211Z,6.70
2019-04-22T17:16:02.844Z,15.50
2019-04-22T17:18:33.157Z,5.20
2019-04-22T17:21:04.679Z,5.67
2019-04-22T17:23:31.753Z,4.97
2019-04-22T17:26:00.784Z,5.87
2019-04-22T17:28:29.555Z,3.93
2019-04-22T17:30:57.877Z,4.27
2019-04-22T17:33:26.464Z,4.23
2019-04-22T17:35:55.058Z,4.13
2019-04-22T17:38:30.170Z,4.03
2019-04-22T17:41:09.061Z,3.97
2019-04-22T17:43:53.823Z,5.23
2019-04-22T17:46:10.755Z,3.73
2019-04-22T17:48:57.551Z,4.03
2019-04-22T17:51:34.487Z,4.00
2019-04-22T17:54:02.586Z,4.27
2019-04-22T17:56:33.975Z,3.50
2019-04-22T17:59:02.715Z,3.50
2019-04-22T18:01:29.936Z,3.83
2019-04-22T18:03:47.593Z,3.73
2019-04-22T18:06:28.018Z,3.80
2019-04-22T18:09:02.197Z,3.63
2019-04-22T18:11:39.918Z,3.43
2019-04-22T18:14:16.169Z,3.70
2019-04-22T18:16:34.672Z,3.70
2019-04-22T18:19:01.126Z,3.77
2019-04-22T18:21:28.870Z,3.87
2019-04-22T18:23:52.891Z,3.40
2019-04-22T18:26:26.186Z,4.33
2019-04-22T18:29:00.893Z,4.20
2019-04-22T18:31:26.066Z,4.17
2019-04-22T18:33:54.533Z,3.60
2019-04-22T18:36:29.203Z,4.00
2019-04-22T18:39:04.297Z,3.63
2019-04-22T18:41:30.478Z,3.13
2019-04-22T18:44:06.303Z,4.03
2019-04-22T18:46:31.539Z,3.37
2019-04-22T18:49:03.376Z,3.10
2019-04-22T18:51:40.921Z,3.00
2019-04-22T18:54:11.847Z,3.17
2019-04-22T18:56:42.158Z,3.67
2019-04-22T18:59:07.688Z,3.23
2019-04-22T19:01:23.940Z,3.47
2019-04-22T19:04:01.358Z,3.00
2019-04-22T19:06:45.963Z,3.03
2019-04-22T19:09:15.343Z,2.80
2019-04-22T19:11:51.922Z,3.10
2019-04-22T19:14:37.236Z,3.10
2019-04-22T19:17:07.613Z,3.37
2019-04-22T19:21:43.307Z,2.90
2019-04-22T19:24:09.112Z,3.57
2019-04-22T19:26:58.722Z,2.87
2019-04-22T19:29:17.401Z,3.17
2019-04-22T19:31:45.876Z,2.97
2019-04-22T19:34:16.186Z,2.90
2019-04-22T19:36:46.933Z,2.43
2019-04-22T19:39:10.513Z,3.00
2019-04-22T19:41:49.073Z,2.63
2019-04-22T19:44:16.475Z,2.50
2019-04-22T19:46:52.924Z,2.77
2019-04-22T19:49:24.589Z,2.83
2019-04-22T19:51:52.432Z,2.53
2019-04-22T19:54:14.024Z,3.33
2019-04-22T19:56:38.791Z,2.87
2019-04-22T19:59:09.372Z,2.67
2019-04-22T20:01:48.638Z,2.63
2019-04-22T20:04:28.338Z,2.67
2019-04-22T20:07:11.236Z,2.57
2019-04-22T20:09:46.760Z,2.63
2019-04-22T20:12:11.748Z,2.47
2019-04-22T20:14:46.383Z,2.67
2019-04-22T20:17:08.027Z,2.30
2019-04-22T20:19:51.214Z,2.30
2019-04-22T20:22:12.883Z,2.13
2019-04-22T20:24:28.097Z,2.50
2019-04-22T20:27:13.627Z,2.33
2019-04-22T20:29:42.109Z,2.20
2019-04-22T20:32:12.001Z,2.47
2019-04-22T20:34:44.567Z,2.53
2019-04-22T20:37:15.162Z,2.23
2019-04-22T20:39:44.435Z,2.30
2019-04-22T20:42:23.917Z,2.47
2019-04-22T20:44:50.449Z,2.70
2019-04-22T20:47:09.011Z,2.40
2019-04-22T20:49:41.601Z,1.80
2019-04-22T20:52:27.813Z,2.20
2019-04-22T20:54:40.161Z,2.57
2019-04-22T20:57:09.805Z,2.20
2019-04-22T20:59:42.930Z,2.27
2019-04-22T21:02:07.966Z,2.30
2019-04-22T21:04:32.353Z,1.83
2019-04-22T21:07:09.107Z,2.53
2019-04-22T21:09:41.124Z,2.10
2019-04-22T21:12:05.099Z,2.00
2019-04-22T21:14:44.199Z,2.00
2019-04-22T21:17:13.826Z,2.23
2019-04-22T21:19:49.767Z,2.07
2019-04-22T21:22:16.010Z,3.00
2019-04-22T21:24:42.138Z,2.10
2019-04-22T21:27:13.829Z,2.00
2019-04-22T21:29:40.846Z,2.00
2019-04-22T21:32:15.616Z,1.93
2019-04-22T21:34:54.041Z,2.30
2019-04-22T21:37:20.827Z,2.03
2019-04-22T21:39:40.650Z,1.97
2019-04-22T21:42:14.285Z,2.10
2019-04-22T21:44:38.076Z,2.27
2019-04-22T21:49:54.704Z,2.13
2019-04-22T21:52:18.127Z,2.17
2019-04-22T21:54:47.037Z,1.83
2019-04-22T21:57:35.256Z,1.90
2019-04-22T22:00:03.543Z,2.10
2019-04-22T22:02:31.429Z,2.00
2019-04-22T22:04:54.798Z,1.70
2019-04-22T22:07:16.074Z,2.30
2019-04-22T22:10:02.170Z,2.30
2019-04-22T22:12:36.105Z,1.83
2019-04-22T22:15:04.082Z,2.10
2019-04-22T22:17:30.762Z,1.97
2019-04-22T22:20:01.959Z,2.00
2019-04-22T22:25:04.212Z,2.20
2019-04-22T22:27:34.236Z,1.57
2019-04-22T22:30:18.727Z,1.90
2019-04-22T22:32:35.052Z,1.90
2019-04-22T22:35:02.995Z,2.53
2019-04-22T22:37:21.889Z,1.93
2019-04-22T22:39:51.397Z,1.80
2019-04-22T22:42:19.073Z,1.90
2019-04-22T22:44:47.753Z,1.87
2019-04-22T22:47:34.267Z,1.87
2019-04-22T22:50:05.899Z,1.70
2019-04-22T22:52:53.160Z,2.00
2019-04-22T22:55:04.107Z,2.00
2019-04-22T22:57:35.195Z,1.70
2019-04-22T23:00:02.062Z,2.10
2019-04-22T23:02:34.161Z,1.90
2019-04-22T23:05:05.378Z,2.00
2019-04-22T23:07:37.399Z,2.20
2019-04-22T23:10:00.224Z,1.90
2019-04-22T23:12:40.550Z,1.53
2019-04-22T23:14:59.314Z,2.00
2019-04-22T23:17:16.943Z,1.53
2019-04-22T23:19:46.633Z,1.67
2019-04-22T23:22:17.873Z,1.80
2019-04-22T23:25:17.346Z,1.90
2019-04-22T23:27:40.696Z,2.00
2019-04-22T23:30:19.654Z,1.70
2019-04-22T23:32:58.151Z,1.80
2019-04-22T23:35:33.146Z,1.60
2019-04-22T23:38:01.325Z,2.00
2019-04-22T23:40:38.465Z,1.57
2019-04-22T23:43:09.063Z,1.40
2019-04-22T23:46:01.688Z,1.70
2019-04-22T23:48:22.589Z,1.63
2019-04-22T23:51:03.345Z,2.00
2019-04-22T23:53:57.901Z,1.70
2019-04-22T23:56:04.196Z,1.80
